sensor_id;sensor_type;location;lat;lon;timestamp;P1;durP1;ratioP1;P2;durP2;ratioP2
57303;SDS011;43150;50.986;18.208;2023-11-21T00:02:00;2.10;;;1.20;;
57303;SDS011;43150;50.986;18.208;2023-11-21T00:04:25;2.50;;;1.30;;
57303;SDS011;43150;50.986;18.208;2023-11-21T00:06:53;2.60;;;1.40;;
57303;SDS011;43150;50.986;18.208;2023-11-21T00:09:19;4.20;;;1.80;;
57303;SDS011;43150;50.986;18.208;2023-11-21T00:11:47;4.10;;;1.80;;
57303;SDS011;43150;50.986;18.208;2023-11-21T00:14:18;1.90;;;1.40;;
57303;SDS011;43150;50.986;18.208;2023-11-21T00:16:43;2.80;;;1.60;;
57303;SDS011;43150;50.986;18.208;2023-11-21T00:19:09;1.40;;;1.20;;
57303;SDS011;43150;50.986;18.208;2023-11-21T00:21:34;1.50;;;1.10;;
57303;SDS011;43150;50.986;18.208;2023-11-21T00:24:00;4.20;;;0.90;;
57303;SDS011;43150;50.986;18.208;2023-11-21T00:26:29;1.90;;;1.30;;
57303;SDS011;43150;50.986;18.208;2023-11-21T00:29:01;2.20;;;1.60;;
57303;SDS011;43150;50.986;18.208;2023-11-21T00:31:29;4.60;;;1.70;;
57303;SDS011;43150;50.986;18.208;2023-11-21T00:33:57;3.20;;;1.30;;
57303;SDS011;43150;50.986;18.208;2023-11-21T00:36:23;3.90;;;1.60;;
57303;SDS011;43150;50.986;18.208;2023-11-21T00:38:48;1.10;;;0.90;;
57303;SDS011;43150;50.986;18.208;2023-11-21T00:41:14;0.90;;;0.80;;
57303;SDS011;43150;50.986;18.208;2023-11-21T00:43:40;2.60;;;1.20;;
57303;SDS011;43150;50.986;18.208;2023-11-21T00:46:05;1.50;;;1.20;;
57303;SDS011;43150;50.986;18.208;2023-11-21T00:48:33;3.00;;;1.10;;
57303;SDS011;43150;50.986;18.208;2023-11-21T00:50:58;2.30;;;1.50;;
57303;SDS011;43150;50.986;18.208;2023-11-21T00:53:24;1.30;;;0.90;;
57303;SDS011;43150;50.986;18.208;2023-11-21T00:55:49;2.60;;;1.60;;
57303;SDS011;43150;50.986;18.208;2023-11-21T00:58:15;1.50;;;1.30;;
57303;SDS011;43150;50.986;18.208;2023-11-21T01:00:40;3.40;;;1.10;;
57303;SDS011;43150;50.986;18.208;2023-11-21T01:03:06;2.20;;;1.30;;
57303;SDS011;43150;50.986;18.208;2023-11-21T01:05:37;2.90;;;1.60;;
57303;SDS011;43150;50.986;18.208;2023-11-21T01:08:02;1.90;;;1.20;;
57303;SDS011;43150;50.986;18.208;2023-11-21T01:10:29;1.60;;;1.30;;
57303;SDS011;43150;50.986;18.208;2023-11-21T01:12:55;1.80;;;1.10;;
57303;SDS011;43150;50.986;18.208;2023-11-21T01:15:20;1.70;;;1.30;;
57303;SDS011;43150;50.986;18.208;2023-11-21T01:17:46;2.40;;;1.60;;
57303;SDS011;43150;50.986;18.208;2023-11-21T01:20:12;2.80;;;1.50;;
57303;SDS011;43150;50.986;18.208;2023-11-21T01:22:38;2.90;;;1.60;;
57303;SDS011;43150;50.986;18.208;2023-11-21T01:25:04;1.80;;;1.10;;
57303;SDS011;43150;50.986;18.208;2023-11-21T01:27:33;2.10;;;1.40;;
57303;SDS011;43150;50.986;18.208;2023-11-21T01:29:59;2.50;;;1.10;;
57303;SDS011;43150;50.986;18.208;2023-11-21T01:32:24;2.50;;;0.90;;
57303;SDS011;43150;50.986;18.208;2023-11-21T01:34:50;2.40;;;0.90;;
57303;SDS011;43150;50.986;18.208;2023-11-21T01:37:16;1.80;;;0.60;;
57303;SDS011;43150;50.986;18.208;2023-11-21T01:39:43;2.80;;;0.90;;
57303;SDS011;43150;50.986;18.208;2023-11-21T01:42:09;2.00;;;1.20;;
57303;SDS011;43150;50.986;18.208;2023-11-21T01:44:34;1.40;;;0.80;;
57303;SDS011;43150;50.986;18.208;2023-11-21T01:47:00;0.90;;;0.80;;
57303;SDS011;43150;50.986;18.208;2023-11-21T01:49:30;1.10;;;0.60;;
57303;SDS011;43150;50.986;18.208;2023-11-21T01:51:56;3.20;;;2.30;;
57303;SDS011;43150;50.986;18.208;2023-11-21T01:54:21;1.50;;;0.80;;
57303;SDS011;43150;50.986;18.208;2023-11-21T01:56:50;1.50;;;0.90;;
57303;SDS011;43150;50.986;18.208;2023-11-21T01:59:18;1.50;;;1.00;;
57303;SDS011;43150;50.986;18.208;2023-11-21T02:01:44;1.50;;;0.80;;
57303;SDS011;43150;50.986;18.208;2023-11-21T02:04:09;1.40;;;1.10;;
57303;SDS011;43150;50.986;18.208;2023-11-21T02:06:41;2.10;;;1.20;;
57303;SDS011;43150;50.986;18.208;2023-11-21T02:09:07;1.40;;;0.80;;
57303;SDS011;43150;50.986;18.208;2023-11-21T02:11:34;1.30;;;1.00;;
57303;SDS011;43150;50.986;18.208;2023-11-21T02:14:00;1.60;;;1.00;;
57303;SDS011;43150;50.986;18.208;2023-11-21T02:16:26;0.80;;;0.70;;
57303;SDS011;43150;50.986;18.208;2023-11-21T02:18:52;0.90;;;0.60;;
57303;SDS011;43150;50.986;18.208;2023-11-21T02:21:18;3.20;;;0.80;;
57303;SDS011;43150;50.986;18.208;2023-11-21T02:23:44;1.30;;;1.00;;
57303;SDS011;43150;50.986;18.208;2023-11-21T02:26:12;1.80;;;0.70;;
57303;SDS011;43150;50.986;18.208;2023-11-21T02:28:37;2.00;;;1.30;;
57303;SDS011;43150;50.986;18.208;2023-11-21T02:31:04;1.30;;;0.90;;
57303;SDS011;43150;50.986;18.208;2023-11-21T02:33:30;0.90;;;0.50;;
57303;SDS011;43150;50.986;18.208;2023-11-21T02:35:59;1.40;;;0.70;;
57303;SDS011;43150;50.986;18.208;2023-11-21T02:38:25;0.80;;;0.70;;
57303;SDS011;43150;50.986;18.208;2023-11-21T02:40:50;3.40;;;1.30;;
57303;SDS011;43150;50.986;18.208;2023-11-21T02:43:21;1.30;;;0.70;;
57303;SDS011;43150;50.986;18.208;2023-11-21T02:45:46;0.60;;;0.40;;
57303;SDS011;43150;50.986;18.208;2023-11-21T02:48:12;1.10;;;0.70;;
57303;SDS011;43150;50.986;18.208;2023-11-21T02:50:37;1.70;;;0.70;;
57303;SDS011;43150;50.986;18.208;2023-11-21T02:53:03;1.80;;;0.70;;
57303;SDS011;43150;50.986;18.208;2023-11-21T02:55:31;1.40;;;0.80;;
57303;SDS011;43150;50.986;18.208;2023-11-21T02:58:02;1.60;;;1.10;;
57303;SDS011;43150;50.986;18.208;2023-11-21T03:00:29;1.10;;;1.00;;
57303;SDS011;43150;50.986;18.208;2023-11-21T03:02:56;2.30;;;0.90;;
57303;SDS011;43150;50.986;18.208;2023-11-21T03:05:22;2.90;;;0.90;;
57303;SDS011;43150;50.986;18.208;2023-11-21T03:07:48;9.10;;;2.60;;
57303;SDS011;43150;50.986;18.208;2023-11-21T03:10:15;5.40;;;2.50;;
57303;SDS011;43150;50.986;18.208;2023-11-21T03:12:41;2.70;;;1.50;;
57303;SDS011;43150;50.986;18.208;2023-11-21T03:15:07;2.00;;;1.10;;
57303;SDS011;43150;50.986;18.208;2023-11-21T03:17:32;1.70;;;1.50;;
57303;SDS011;43150;50.986;18.208;2023-11-21T03:19:59;0.80;;;0.70;;
57303;SDS011;43150;50.986;18.208;2023-11-21T03:22:25;1.60;;;1.00;;
57303;SDS011;43150;50.986;18.208;2023-11-21T03:24:50;1.90;;;1.30;;
57303;SDS011;43150;50.986;18.208;2023-11-21T03:27:16;1.70;;;1.20;;
57303;SDS011;43150;50.986;18.208;2023-11-21T03:29:41;1.20;;;0.80;;
57303;SDS011;43150;50.986;18.208;2023-11-21T03:32:07;2.30;;;1.40;;
57303;SDS011;43150;50.986;18.208;2023-11-21T03:34:32;1.90;;;0.90;;
57303;SDS011;43150;50.986;18.208;2023-11-21T03:37:00;2.10;;;1.10;;
57303;SDS011;43150;50.986;18.208;2023-11-21T03:39:26;2.40;;;1.10;;
57303;SDS011;43150;50.986;18.208;2023-11-21T03:41:52;1.30;;;0.90;;
57303;SDS011;43150;50.986;18.208;2023-11-21T03:44:17;1.50;;;1.00;;
57303;SDS011;43150;50.986;18.208;2023-11-21T03:46:46;2.40;;;1.20;;
57303;SDS011;43150;50.986;18.208;2023-11-21T03:49:11;4.40;;;1.00;;
57303;SDS011;43150;50.986;18.208;2023-11-21T03:51:36;1.80;;;1.00;;
57303;SDS011;43150;50.986;18.208;2023-11-21T03:54:11;2.00;;;1.00;;
57303;SDS011;43150;50.986;18.208;2023-11-21T03:56:39;2.40;;;1.40;;
57303;SDS011;43150;50.986;18.208;2023-11-21T03:59:05;2.10;;;1.10;;
57303;SDS011;43150;50.986;18.208;2023-11-21T04:01:30;1.70;;;1.00;;
57303;SDS011;43150;50.986;18.208;2023-11-21T04:03:56;1.50;;;1.00;;
57303;SDS011;43150;50.986;18.208;2023-11-21T04:06:28;1.50;;;1.20;;
57303;SDS011;43150;50.986;18.208;2023-11-21T04:08:54;2.10;;;1.40;;
57303;SDS011;43150;50.986;18.208;2023-11-21T04:11:22;0.90;;;0.70;;
57303;SDS011;43150;50.986;18.208;2023-11-21T04:14:01;4.40;;;1.70;;
57303;SDS011;43150;50.986;18.208;2023-11-21T04:16:26;2.20;;;0.90;;
57303;SDS011;43150;50.986;18.208;2023-11-21T04:19:10;2.20;;;1.00;;
57303;SDS011;43150;50.986;18.208;2023-11-21T04:21:36;1.60;;;1.20;;
57303;SDS011;43150;50.986;18.208;2023-11-21T04:24:01;2.10;;;1.20;;
57303;SDS011;43150;50.986;18.208;2023-11-21T04:26:27;1.60;;;1.20;;
57303;SDS011;43150;50.986;18.208;2023-11-21T04:28:53;1.50;;;0.90;;
57303;SDS011;43150;50.986;18.208;2023-11-21T04:31:22;1.90;;;1.10;;
57303;SDS011;43150;50.986;18.208;2023-11-21T04:33:48;2.00;;;1.20;;
57303;SDS011;43150;50.986;18.208;2023-11-21T04:36:14;1.80;;;1.20;;
57303;SDS011;43150;50.986;18.208;2023-11-21T04:38:39;2.60;;;1.00;;
57303;SDS011;43150;50.986;18.208;2023-11-21T04:41:19;3.20;;;1.00;;
57303;SDS011;43150;50.986;18.208;2023-11-21T04:46:31;1.10;;;1.00;;
57303;SDS011;43150;50.986;18.208;2023-11-21T04:48:57;2.30;;;1.20;;
57303;SDS011;43150;50.986;18.208;2023-11-21T04:51:23;1.60;;;1.10;;
57303;SDS011;43150;50.986;18.208;2023-11-21T04:53:49;1.30;;;1.10;;
57303;SDS011;43150;50.986;18.208;2023-11-21T04:56:14;1.90;;;0.90;;
57303;SDS011;43150;50.986;18.208;2023-11-21T04:58:41;1.70;;;1.30;;
57303;SDS011;43150;50.986;18.208;2023-11-21T05:01:07;1.10;;;0.70;;
57303;SDS011;43150;50.986;18.208;2023-11-21T05:03:33;2.50;;;1.10;;
57303;SDS011;43150;50.986;18.208;2023-11-21T05:05:59;2.10;;;0.80;;
57303;SDS011;43150;50.986;18.208;2023-11-21T05:08:25;1.70;;;0.90;;
57303;SDS011;43150;50.986;18.208;2023-11-21T05:10:51;2.60;;;1.00;;
57303;SDS011;43150;50.986;18.208;2023-11-21T05:13:23;2.00;;;1.30;;
57303;SDS011;43150;50.986;18.208;2023-11-21T05:15:54;1.10;;;0.90;;
57303;SDS011;43150;50.986;18.208;2023-11-21T05:18:19;2.20;;;0.80;;
57303;SDS011;43150;50.986;18.208;2023-11-21T05:20:45;3.00;;;1.40;;
57303;SDS011;43150;50.986;18.208;2023-11-21T05:23:13;1.70;;;1.10;;
57303;SDS011;43150;50.986;18.208;2023-11-21T05:25:39;1.40;;;1.00;;
57303;SDS011;43150;50.986;18.208;2023-11-21T05:28:10;1.60;;;1.30;;
57303;SDS011;43150;50.986;18.208;2023-11-21T05:30:36;3.10;;;1.60;;
57303;SDS011;43150;50.986;18.208;2023-11-21T05:33:01;2.30;;;1.30;;
57303;SDS011;43150;50.986;18.208;2023-11-21T05:35:27;1.90;;;1.10;;
57303;SDS011;43150;50.986;18.208;2023-11-21T05:37:52;2.30;;;1.20;;
57303;SDS011;43150;50.986;18.208;2023-11-21T05:40:18;1.90;;;1.00;;
57303;SDS011;43150;50.986;18.208;2023-11-21T05:42:43;2.00;;;0.90;;
57303;SDS011;43150;50.986;18.208;2023-11-21T05:45:09;2.30;;;1.50;;
57303;SDS011;43150;50.986;18.208;2023-11-21T05:47:39;1.70;;;0.80;;
57303;SDS011;43150;50.986;18.208;2023-11-21T05:50:06;1.30;;;0.90;;
57303;SDS011;43150;50.986;18.208;2023-11-21T05:52:36;3.00;;;1.60;;
57303;SDS011;43150;50.986;18.208;2023-11-21T05:55:03;2.20;;;1.10;;
57303;SDS011;43150;50.986;18.208;2023-11-21T05:57:34;1.50;;;0.90;;
57303;SDS011;43150;50.986;18.208;2023-11-21T06:00:07;3.60;;;1.70;;
57303;SDS011;43150;50.986;18.208;2023-11-21T06:03:01;2.40;;;1.70;;
57303;SDS011;43150;50.986;18.208;2023-11-21T06:05:28;1.10;;;1.00;;
57303;SDS011;43150;50.986;18.208;2023-11-21T06:07:54;1.60;;;1.30;;
57303;SDS011;43150;50.986;18.208;2023-11-21T06:10:20;2.70;;;1.20;;
57303;SDS011;43150;50.986;18.208;2023-11-21T06:12:45;1.20;;;0.80;;
57303;SDS011;43150;50.986;18.208;2023-11-21T06:15:14;3.00;;;1.80;;
57303;SDS011;43150;50.986;18.208;2023-11-21T06:17:40;2.70;;;2.00;;
57303;SDS011;43150;50.986;18.208;2023-11-21T06:20:06;4.10;;;2.40;;
57303;SDS011;43150;50.986;18.208;2023-11-21T06:22:40;5.10;;;2.60;;
57303;SDS011;43150;50.986;18.208;2023-11-21T06:25:06;4.70;;;2.80;;
57303;SDS011;43150;50.986;18.208;2023-11-21T06:27:33;4.10;;;2.70;;
57303;SDS011;43150;50.986;18.208;2023-11-21T06:30:01;5.20;;;3.20;;
57303;SDS011;43150;50.986;18.208;2023-11-21T06:32:26;4.30;;;2.40;;
57303;SDS011;43150;50.986;18.208;2023-11-21T06:34:57;4.30;;;3.00;;
57303;SDS011;43150;50.986;18.208;2023-11-21T06:37:29;4.70;;;3.10;;
57303;SDS011;43150;50.986;18.208;2023-11-21T06:39:54;3.90;;;2.50;;
57303;SDS011;43150;50.986;18.208;2023-11-21T06:42:22;4.10;;;2.50;;
57303;SDS011;43150;50.986;18.208;2023-11-21T06:44:48;5.00;;;2.80;;
57303;SDS011;43150;50.986;18.208;2023-11-21T06:47:27;5.60;;;2.20;;
57303;SDS011;43150;50.986;18.208;2023-11-21T06:49:54;2.10;;;1.50;;
57303;SDS011;43150;50.986;18.208;2023-11-21T06:52:20;2.90;;;1.70;;
57303;SDS011;43150;50.986;18.208;2023-11-21T06:54:45;3.60;;;1.80;;
57303;SDS011;43150;50.986;18.208;2023-11-21T06:57:12;5.00;;;2.30;;
57303;SDS011;43150;50.986;18.208;2023-11-21T06:59:38;4.00;;;2.20;;
57303;SDS011;43150;50.986;18.208;2023-11-21T07:02:04;3.90;;;2.40;;
57303;SDS011;43150;50.986;18.208;2023-11-21T07:04:32;3.80;;;2.30;;
57303;SDS011;43150;50.986;18.208;2023-11-21T07:06:57;2.90;;;1.90;;
57303;SDS011;43150;50.986;18.208;2023-11-21T07:09:23;3.80;;;1.80;;
57303;SDS011;43150;50.986;18.208;2023-11-21T07:11:48;4.90;;;2.60;;
57303;SDS011;43150;50.986;18.208;2023-11-21T07:14:14;4.40;;;1.80;;
57303;SDS011;43150;50.986;18.208;2023-11-21T07:16:40;2.20;;;1.70;;
57303;SDS011;43150;50.986;18.208;2023-11-21T07:19:06;2.70;;;1.40;;
57303;SDS011;43150;50.986;18.208;2023-11-21T07:21:32;2.60;;;1.60;;
57303;SDS011;43150;50.986;18.208;2023-11-21T07:23:58;1.70;;;1.60;;
57303;SDS011;43150;50.986;18.208;2023-11-21T07:26:24;2.40;;;1.50;;
57303;SDS011;43150;50.986;18.208;2023-11-21T07:28:53;6.60;;;4.30;;
57303;SDS011;43150;50.986;18.208;2023-11-21T07:31:38;3.30;;;1.40;;
57303;SDS011;43150;50.986;18.208;2023-11-21T07:34:03;2.20;;;1.60;;
57303;SDS011;43150;50.986;18.208;2023-11-21T07:36:29;2.30;;;1.70;;
57303;SDS011;43150;50.986;18.208;2023-11-21T07:38:54;3.60;;;1.40;;
57303;SDS011;43150;50.986;18.208;2023-11-21T07:41:20;3.60;;;1.90;;
57303;SDS011;43150;50.986;18.208;2023-11-21T07:43:46;7.70;;;4.00;;
57303;SDS011;43150;50.986;18.208;2023-11-21T07:46:11;6.10;;;3.20;;
57303;SDS011;43150;50.986;18.208;2023-11-21T07:48:40;5.70;;;3.00;;
57303;SDS011;43150;50.986;18.208;2023-11-21T07:51:08;5.80;;;1.60;;
57303;SDS011;43150;50.986;18.208;2023-11-21T07:53:34;4.40;;;2.10;;
57303;SDS011;43150;50.986;18.208;2023-11-21T07:56:03;2.60;;;1.60;;
57303;SDS011;43150;50.986;18.208;2023-11-21T07:58:28;3.40;;;1.50;;
57303;SDS011;43150;50.986;18.208;2023-11-21T08:01:00;5.10;;;1.80;;
57303;SDS011;43150;50.986;18.208;2023-11-21T08:03:25;3.30;;;1.90;;
57303;SDS011;43150;50.986;18.208;2023-11-21T08:05:57;3.20;;;1.20;;
57303;SDS011;43150;50.986;18.208;2023-11-21T08:08:23;1.90;;;1.50;;
57303;SDS011;43150;50.986;18.208;2023-11-21T08:10:49;3.40;;;1.40;;
57303;SDS011;43150;50.986;18.208;2023-11-21T08:13:22;3.00;;;1.00;;
57303;SDS011;43150;50.986;18.208;2023-11-21T08:15:47;3.50;;;1.50;;
57303;SDS011;43150;50.986;18.208;2023-11-21T08:18:13;2.00;;;1.00;;
57303;SDS011;43150;50.986;18.208;2023-11-21T08:20:40;1.90;;;1.30;;
57303;SDS011;43150;50.986;18.208;2023-11-21T08:23:05;1.20;;;0.90;;
57303;SDS011;43150;50.986;18.208;2023-11-21T08:25:31;8.40;;;1.80;;
57303;SDS011;43150;50.986;18.208;2023-11-21T08:27:58;5.90;;;2.60;;
57303;SDS011;43150;50.986;18.208;2023-11-21T08:30:24;2.40;;;1.60;;
57303;SDS011;43150;50.986;18.208;2023-11-21T08:32:50;12.50;;;6.00;;
57303;SDS011;43150;50.986;18.208;2023-11-21T08:35:17;4.50;;;2.30;;
57303;SDS011;43150;50.986;18.208;2023-11-21T08:37:43;2.70;;;1.60;;
57303;SDS011;43150;50.986;18.208;2023-11-21T08:40:08;4.40;;;2.90;;
57303;SDS011;43150;50.986;18.208;2023-11-21T08:42:40;2.80;;;1.80;;
57303;SDS011;43150;50.986;18.208;2023-11-21T08:45:05;4.80;;;2.70;;
57303;SDS011;43150;50.986;18.208;2023-11-21T08:47:34;2.30;;;1.60;;
57303;SDS011;43150;50.986;18.208;2023-11-21T08:50:02;2.90;;;1.70;;
57303;SDS011;43150;50.986;18.208;2023-11-21T08:52:27;2.50;;;1.70;;
57303;SDS011;43150;50.986;18.208;2023-11-21T08:55:06;2.10;;;1.20;;
57303;SDS011;43150;50.986;18.208;2023-11-21T08:57:34;5.60;;;4.40;;
57303;SDS011;43150;50.986;18.208;2023-11-21T09:00:07;2.20;;;1.20;;
57303;SDS011;43150;50.986;18.208;2023-11-21T09:02:37;3.40;;;2.10;;
57303;SDS011;43150;50.986;18.208;2023-11-21T09:05:04;2.90;;;1.80;;
57303;SDS011;43150;50.986;18.208;2023-11-21T09:07:29;2.90;;;1.90;;
57303;SDS011;43150;50.986;18.208;2023-11-21T09:09:56;2.50;;;1.30;;
57303;SDS011;43150;50.986;18.208;2023-11-21T09:12:21;2.40;;;1.70;;
57303;SDS011;43150;50.986;18.208;2023-11-21T09:14:46;3.10;;;2.10;;
57303;SDS011;43150;50.986;18.208;2023-11-21T09:17:12;6.10;;;3.90;;
57303;SDS011;43150;50.986;18.208;2023-11-21T09:19:38;3.80;;;2.50;;
57303;SDS011;43150;50.986;18.208;2023-11-21T09:22:03;4.50;;;1.90;;
57303;SDS011;43150;50.986;18.208;2023-11-21T09:24:30;2.20;;;1.80;;
57303;SDS011;43150;50.986;18.208;2023-11-21T09:26:56;2.80;;;1.80;;
57303;SDS011;43150;50.986;18.208;2023-11-21T09:29:21;6.40;;;4.70;;
57303;SDS011;43150;50.986;18.208;2023-11-21T09:31:47;4.30;;;2.70;;
57303;SDS011;43150;50.986;18.208;2023-11-21T09:34:13;3.00;;;2.10;;
57303;SDS011;43150;50.986;18.208;2023-11-21T09:36:40;4.30;;;2.30;;
57303;SDS011;43150;50.986;18.208;2023-11-21T09:39:06;4.40;;;3.00;;
57303;SDS011;43150;50.986;18.208;2023-11-21T09:41:43;3.00;;;2.20;;
57303;SDS011;43150;50.986;18.208;2023-11-21T09:44:12;2.40;;;1.80;;
57303;SDS011;43150;50.986;18.208;2023-11-21T09:46:40;4.00;;;2.00;;
57303;SDS011;43150;50.986;18.208;2023-11-21T09:49:09;4.00;;;2.60;;
57303;SDS011;43150;50.986;18.208;2023-11-21T09:51:39;2.40;;;1.60;;
57303;SDS011;43150;50.986;18.208;2023-11-21T09:54:06;2.90;;;1.70;;
57303;SDS011;43150;50.986;18.208;2023-11-21T09:56:45;25.90;;;21.40;;
57303;SDS011;43150;50.986;18.208;2023-11-21T09:59:12;15.60;;;8.30;;
57303;SDS011;43150;50.986;18.208;2023-11-21T10:01:38;22.50;;;14.00;;
57303;SDS011;43150;50.986;18.208;2023-11-21T10:04:06;14.40;;;9.20;;
57303;SDS011;43150;50.986;18.208;2023-11-21T10:06:40;16.80;;;10.40;;
57303;SDS011;43150;50.986;18.208;2023-11-21T10:09:12;21.20;;;11.40;;
57303;SDS011;43150;50.986;18.208;2023-11-21T10:11:41;18.40;;;11.50;;
57303;SDS011;43150;50.986;18.208;2023-11-21T10:14:11;17.40;;;10.00;;
57303;SDS011;43150;50.986;18.208;2023-11-21T10:16:40;20.80;;;11.20;;
57303;SDS011;43150;50.986;18.208;2023-11-21T10:19:06;18.70;;;10.50;;
57303;SDS011;43150;50.986;18.208;2023-11-21T10:21:37;20.40;;;11.30;;
57303;SDS011;43150;50.986;18.208;2023-11-21T10:24:03;22.50;;;12.60;;
57303;SDS011;43150;50.986;18.208;2023-11-21T10:26:28;23.20;;;12.20;;
57303;SDS011;43150;50.986;18.208;2023-11-21T10:28:57;19.40;;;11.20;;
57303;SDS011;43150;50.986;18.208;2023-11-21T10:31:23;21.70;;;12.30;;
57303;SDS011;43150;50.986;18.208;2023-11-21T10:33:50;20.60;;;12.20;;
57303;SDS011;43150;50.986;18.208;2023-11-21T10:36:28;19.60;;;10.70;;
57303;SDS011;43150;50.986;18.208;2023-11-21T10:38:54;21.50;;;12.40;;
57303;SDS011;43150;50.986;18.208;2023-11-21T10:41:20;22.20;;;11.30;;
57303;SDS011;43150;50.986;18.208;2023-11-21T10:43:46;21.20;;;11.60;;
57303;SDS011;43150;50.986;18.208;2023-11-21T10:46:12;23.10;;;13.70;;
57303;SDS011;43150;50.986;18.208;2023-11-21T10:48:38;21.40;;;12.70;;
57303;SDS011;43150;50.986;18.208;2023-11-21T10:51:07;27.60;;;15.00;;
57303;SDS011;43150;50.986;18.208;2023-11-21T10:53:38;23.40;;;12.10;;
57303;SDS011;43150;50.986;18.208;2023-11-21T10:56:08;23.30;;;12.60;;
57303;SDS011;43150;50.986;18.208;2023-11-21T10:58:35;24.00;;;12.50;;
57303;SDS011;43150;50.986;18.208;2023-11-21T11:01:01;20.90;;;11.80;;
57303;SDS011;43150;50.986;18.208;2023-11-21T11:03:29;20.00;;;11.90;;
57303;SDS011;43150;50.986;18.208;2023-11-21T11:05:55;24.90;;;11.50;;
57303;SDS011;43150;50.986;18.208;2023-11-21T11:08:21;20.20;;;9.60;;
57303;SDS011;43150;50.986;18.208;2023-11-21T11:10:51;19.90;;;11.70;;
57303;SDS011;43150;50.986;18.208;2023-11-21T11:13:24;18.20;;;10.40;;
57303;SDS011;43150;50.986;18.208;2023-11-21T11:15:51;25.40;;;13.20;;
57303;SDS011;43150;50.986;18.208;2023-11-21T11:18:16;20.00;;;11.10;;
57303;SDS011;43150;50.986;18.208;2023-11-21T11:20:42;19.10;;;10.50;;
57303;SDS011;43150;50.986;18.208;2023-11-21T11:26:32;17.90;;;9.50;;
57303;SDS011;43150;50.986;18.208;2023-11-21T11:31:51;15.20;;;7.60;;
57303;SDS011;43150;50.986;18.208;2023-11-21T11:34:29;11.40;;;6.30;;
57303;SDS011;43150;50.986;18.208;2023-11-21T11:37:00;13.80;;;7.20;;
57303;SDS011;43150;50.986;18.208;2023-11-21T11:39:28;14.40;;;8.30;;
57303;SDS011;43150;50.986;18.208;2023-11-21T11:41:55;13.40;;;7.20;;
57303;SDS011;43150;50.986;18.208;2023-11-21T11:47:12;20.30;;;10.40;;
57303;SDS011;43150;50.986;18.208;2023-11-21T11:49:38;15.70;;;9.00;;
57303;SDS011;43150;50.986;18.208;2023-11-21T11:52:36;16.70;;;9.40;;
57303;SDS011;43150;50.986;18.208;2023-11-21T11:55:02;13.00;;;6.90;;
57303;SDS011;43150;50.986;18.208;2023-11-21T11:57:30;17.50;;;9.70;;
57303;SDS011;43150;50.986;18.208;2023-11-21T12:00:09;15.10;;;8.40;;
57303;SDS011;43150;50.986;18.208;2023-11-21T12:02:36;16.00;;;8.20;;
57303;SDS011;43150;50.986;18.208;2023-11-21T12:05:12;15.30;;;7.10;;
57303;SDS011;43150;50.986;18.208;2023-11-21T12:07:47;17.60;;;9.00;;
57303;SDS011;43150;50.986;18.208;2023-11-21T12:10:16;18.60;;;9.10;;
57303;SDS011;43150;50.986;18.208;2023-11-21T12:12:43;16.20;;;8.40;;
57303;SDS011;43150;50.986;18.208;2023-11-21T12:15:10;13.70;;;8.10;;
57303;SDS011;43150;50.986;18.208;2023-11-21T12:17:37;21.90;;;9.50;;
57303;SDS011;43150;50.986;18.208;2023-11-21T12:20:04;15.20;;;8.20;;
57303;SDS011;43150;50.986;18.208;2023-11-21T12:22:31;18.20;;;9.10;;
57303;SDS011;43150;50.986;18.208;2023-11-21T12:24:56;14.70;;;6.80;;
57303;SDS011;43150;50.986;18.208;2023-11-21T12:27:21;17.50;;;9.00;;
57303;SDS011;43150;50.986;18.208;2023-11-21T12:29:47;20.20;;;9.40;;
57303;SDS011;43150;50.986;18.208;2023-11-21T12:32:15;18.40;;;9.80;;
57303;SDS011;43150;50.986;18.208;2023-11-21T12:34:43;23.50;;;11.20;;
57303;SDS011;43150;50.986;18.208;2023-11-21T12:37:08;11.90;;;6.40;;
57303;SDS011;43150;50.986;18.208;2023-11-21T12:39:34;15.50;;;8.30;;
57303;SDS011;43150;50.986;18.208;2023-11-21T12:42:02;14.60;;;8.00;;
57303;SDS011;43150;50.986;18.208;2023-11-21T12:44:33;16.00;;;9.40;;
57303;SDS011;43150;50.986;18.208;2023-11-21T12:46:59;13.20;;;5.90;;
57303;SDS011;43150;50.986;18.208;2023-11-21T12:49:24;12.90;;;7.00;;
57303;SDS011;43150;50.986;18.208;2023-11-21T12:51:50;15.70;;;6.30;;
57303;SDS011;43150;50.986;18.208;2023-11-21T12:54:16;16.40;;;7.90;;
57303;SDS011;43150;50.986;18.208;2023-11-21T12:56:44;13.40;;;7.40;;
57303;SDS011;43150;50.986;18.208;2023-11-21T12:59:18;11.10;;;6.00;;
57303;SDS011;43150;50.986;18.208;2023-11-21T13:01:46;18.60;;;7.50;;
57303;SDS011;43150;50.986;18.208;2023-11-21T13:04:12;17.70;;;8.70;;
57303;SDS011;43150;50.986;18.208;2023-11-21T13:06:37;13.30;;;5.70;;
57303;SDS011;43150;50.986;18.208;2023-11-21T13:09:07;11.40;;;6.80;;
57303;SDS011;43150;50.986;18.208;2023-11-21T13:11:38;11.70;;;5.70;;
57303;SDS011;43150;50.986;18.208;2023-11-21T13:14:06;10.20;;;5.60;;
57303;SDS011;43150;50.986;18.208;2023-11-21T13:16:31;13.10;;;8.10;;
57303;SDS011;43150;50.986;18.208;2023-11-21T13:18:58;10.20;;;6.30;;
57303;SDS011;43150;50.986;18.208;2023-11-21T13:21:23;13.80;;;7.60;;
57303;SDS011;43150;50.986;18.208;2023-11-21T13:23:49;11.50;;;6.50;;
57303;SDS011;43150;50.986;18.208;2023-11-21T13:26:18;8.90;;;5.80;;
57303;SDS011;43150;50.986;18.208;2023-11-21T13:28:48;9.10;;;6.00;;
57303;SDS011;43150;50.986;18.208;2023-11-21T13:31:13;14.20;;;7.20;;
57303;SDS011;43150;50.986;18.208;2023-11-21T13:33:57;7.10;;;4.80;;
57303;SDS011;43150;50.986;18.208;2023-11-21T13:36:30;8.20;;;5.60;;
57303;SDS011;43150;50.986;18.208;2023-11-21T13:38:58;7.30;;;3.90;;
57303;SDS011;43150;50.986;18.208;2023-11-21T13:41:35;4.40;;;3.30;;
57303;SDS011;43150;50.986;18.208;2023-11-21T13:44:03;6.40;;;3.50;;
57303;SDS011;43150;50.986;18.208;2023-11-21T13:46:41;5.70;;;4.10;;
57303;SDS011;43150;50.986;18.208;2023-11-21T13:49:06;5.40;;;3.60;;
57303;SDS011;43150;50.986;18.208;2023-11-21T13:51:36;5.40;;;3.70;;
57303;SDS011;43150;50.986;18.208;2023-11-21T13:54:09;4.60;;;3.20;;
57303;SDS011;43150;50.986;18.208;2023-11-21T13:56:35;6.70;;;3.90;;
57303;SDS011;43150;50.986;18.208;2023-11-21T13:59:01;6.90;;;5.20;;
57303;SDS011;43150;50.986;18.208;2023-11-21T14:01:35;4.00;;;3.10;;
57303;SDS011;43150;50.986;18.208;2023-11-21T14:04:43;8.90;;;5.70;;
57303;SDS011;43150;50.986;18.208;2023-11-21T14:07:14;7.00;;;6.20;;
57303;SDS011;43150;50.986;18.208;2023-11-21T14:09:51;11.40;;;6.80;;
57303;SDS011;43150;50.986;18.208;2023-11-21T14:12:18;9.50;;;6.60;;
57303;SDS011;43150;50.986;18.208;2023-11-21T14:14:43;10.70;;;6.20;;
57303;SDS011;43150;50.986;18.208;2023-11-21T14:17:10;8.10;;;5.90;;
57303;SDS011;43150;50.986;18.208;2023-11-21T14:19:36;7.60;;;5.40;;
57303;SDS011;43150;50.986;18.208;2023-11-21T14:22:05;8.70;;;6.20;;
57303;SDS011;43150;50.986;18.208;2023-11-21T14:24:33;7.90;;;6.50;;
57303;SDS011;43150;50.986;18.208;2023-11-21T14:26:58;11.00;;;7.40;;
57303;SDS011;43150;50.986;18.208;2023-11-21T14:29:23;8.40;;;6.30;;
57303;SDS011;43150;50.986;18.208;2023-11-21T14:31:52;12.80;;;7.80;;
57303;SDS011;43150;50.986;18.208;2023-11-21T14:34:21;12.70;;;7.70;;
57303;SDS011;43150;50.986;18.208;2023-11-21T14:36:47;15.30;;;9.10;;
57303;SDS011;43150;50.986;18.208;2023-11-21T14:39:14;10.90;;;6.50;;
57303;SDS011;43150;50.986;18.208;2023-11-21T14:41:51;12.50;;;8.10;;
57303;SDS011;43150;50.986;18.208;2023-11-21T14:44:18;15.30;;;9.10;;
57303;SDS011;43150;50.986;18.208;2023-11-21T14:46:43;14.60;;;7.80;;